createdAt,value
2018-07-24T00:01:40.198Z,6.40
2018-07-24T00:04:13.863Z,6.03
2018-07-24T00:06:45.429Z,6.27
2018-07-24T00:09:16.544Z,6.93
2018-07-24T00:11:47.683Z,7.03
2018-07-24T00:14:18.938Z,6.43
2018-07-24T00:16:50.221Z,7.17
2018-07-24T00:19:20.838Z,6.30
2018-07-24T00:21:52.090Z,6.43
2018-07-24T00:24:23.222Z,6.13
2018-07-24T00:26:54.442Z,5.97
2018-07-24T00:29:25.602Z,6.67
2018-07-24T00:31:56.709Z,6.57
2018-07-24T00:34:27.803Z,6.90
2018-07-24T00:36:58.415Z,7.03
2018-07-24T00:39:29.283Z,6.80
2018-07-24T00:42:00.292Z,6.63
2018-07-24T00:44:31.399Z,6.77
2018-07-24T00:47:02.469Z,6.80
2018-07-24T00:49:33.520Z,6.40
2018-07-24T00:52:04.574Z,6.73
2018-07-24T00:54:35.760Z,6.33
2018-07-24T00:57:07.316Z,6.43
2018-07-24T00:59:38.454Z,6.90
2018-07-24T01:02:09.881Z,5.40
2018-07-24T01:04:41.537Z,5.33
2018-07-24T01:07:13.921Z,5.03
2018-07-24T01:09:46.417Z,5.30
2018-07-24T01:12:19.018Z,5.00
2018-07-24T01:14:50.953Z,5.17
2018-07-24T01:17:22.870Z,5.60
2018-07-24T01:19:54.319Z,5.40
2018-07-24T01:22:25.498Z,5.77
2018-07-24T01:24:57.974Z,5.27
2018-07-24T01:27:29.588Z,5.40
2018-07-24T01:30:00.635Z,5.10
2018-07-24T01:32:31.385Z,6.13
2018-07-24T01:35:02.184Z,5.60
2018-07-24T01:37:32.895Z,5.73
2018-07-24T01:40:03.800Z,5.70
2018-07-24T01:42:34.502Z,5.40
2018-07-24T01:45:05.089Z,5.80
2018-07-24T01:47:35.836Z,5.90
2018-07-24T01:50:06.726Z,5.93
2018-07-24T01:52:37.449Z,6.10
2018-07-24T01:55:08.333Z,6.00
2018-07-24T01:57:39.065Z,6.40
2018-07-24T02:00:14.181Z,5.90
2018-07-24T02:02:44.999Z,6.13
2018-07-24T02:05:15.777Z,6.13
2018-07-24T02:07:46.475Z,6.20
2018-07-24T02:10:17.280Z,6.80
2018-07-24T02:12:48.074Z,6.73
2018-07-24T02:15:18.899Z,7.17
2018-07-24T02:17:49.681Z,7.03
2018-07-24T02:20:20.473Z,6.30
2018-07-24T02:22:51.295Z,6.70
2018-07-24T02:25:22.020Z,5.83
2018-07-24T02:27:52.920Z,6.77
2018-07-24T02:30:23.879Z,6.57
2018-07-24T02:32:54.616Z,7.00
2018-07-24T02:35:25.335Z,6.83
2018-07-24T02:37:56.084Z,6.73
2018-07-24T02:40:27.098Z,6.67
2018-07-24T02:42:57.975Z,6.33
2018-07-24T02:45:28.814Z,7.13
2018-07-24T02:47:59.633Z,6.80
2018-07-24T02:50:30.458Z,6.57
2018-07-24T02:53:01.275Z,6.30
2018-07-24T02:55:32.057Z,6.60
2018-07-24T02:58:02.849Z,6.53
2018-07-24T03:00:33.628Z,6.23
2018-07-24T03:03:04.493Z,6.17
2018-07-24T03:05:35.326Z,6.43
2018-07-24T03:08:06.170Z,6.17
2018-07-24T03:10:37.028Z,5.77
2018-07-24T03:13:07.866Z,6.03
2018-07-24T03:15:38.189Z,5.57
2018-07-24T03:18:08.569Z,6.03
2018-07-24T03:20:39.251Z,6.07
2018-07-24T03:23:10.079Z,6.17
2018-07-24T03:25:40.883Z,5.43
2018-07-24T03:28:11.848Z,7.07
2018-07-24T03:30:42.740Z,5.60
2018-07-24T03:33:13.588Z,6.10
2018-07-24T03:35:44.367Z,6.27
2018-07-24T03:38:15.140Z,6.27
2018-07-24T03:40:45.965Z,6.17
2018-07-24T03:43:16.696Z,6.37
2018-07-24T03:45:47.630Z,6.53
2018-07-24T03:48:18.500Z,6.13
2018-07-24T03:50:49.349Z,6.60
2018-07-24T03:53:20.382Z,6.50
2018-07-24T03:55:51.106Z,6.73
2018-07-24T03:58:22.077Z,6.53
2018-07-24T04:00:53.252Z,6.83
2018-07-24T04:03:24.025Z,6.50
2018-07-24T04:05:54.809Z,6.90
2018-07-24T04:08:25.767Z,6.37
2018-07-24T04:10:56.528Z,6.93
2018-07-24T04:13:27.305Z,7.10
2018-07-24T04:15:58.052Z,7.77
2018-07-24T04:18:32.968Z,7.30
2018-07-24T04:21:03.693Z,8.07
2018-07-24T04:23:34.387Z,7.90
2018-07-24T04:26:05.231Z,7.43
2018-07-24T04:28:36.479Z,7.40
2018-07-24T04:31:07.462Z,7.17
2018-07-24T04:33:38.231Z,7.70
2018-07-24T04:36:09.068Z,7.80
2018-07-24T04:38:39.878Z,7.77
2018-07-24T04:41:10.286Z,7.97
2018-07-24T04:43:40.564Z,8.50
2018-07-24T04:46:11.416Z,8.13
2018-07-24T04:48:42.419Z,7.60
2018-07-24T04:51:12.889Z,7.80
2018-07-24T04:53:43.829Z,8.50
2018-07-24T04:56:18.161Z,8.00
2018-07-24T04:58:49.822Z,9.70
2018-07-24T05:01:21.199Z,7.17
2018-07-24T05:03:53.192Z,8.10
2018-07-24T05:06:24.781Z,7.63
2018-07-24T05:09:05.423Z,7.73
2018-07-24T05:11:40.776Z,9.07
2018-07-24T05:14:12.449Z,9.47
2018-07-24T05:16:44.218Z,10.17
2018-07-24T05:19:18.034Z,9.60
2018-07-24T05:22:03.773Z,8.50
2018-07-24T05:25:18.105Z,9.20
2018-07-24T05:28:27.806Z,8.33
2018-07-24T05:31:01.521Z,8.67
2018-07-24T05:33:33.052Z,8.17
2018-07-24T05:36:04.406Z,8.10
2018-07-24T05:38:36.839Z,8.27
2018-07-24T05:41:08.276Z,7.60
2018-07-24T05:43:39.546Z,7.73
2018-07-24T05:46:10.897Z,7.17
2018-07-24T05:48:42.405Z,7.17
2018-07-24T05:51:13.399Z,6.93
2018-07-24T05:53:44.533Z,6.93
2018-07-24T05:56:15.669Z,6.33
2018-07-24T05:58:47.916Z,6.80
2018-07-24T06:01:21.172Z,6.33
2018-07-24T06:06:56.640Z,6.47
2018-07-24T06:09:35.351Z,6.10
2018-07-24T06:12:17.228Z,6.80
2018-07-24T06:15:02.219Z,5.97
2018-07-24T08:03:29.221Z,7.27
2018-07-24T08:06:02.630Z,6.97
2018-07-24T08:08:33.818Z,6.17
2018-07-24T08:11:07.136Z,6.40
2018-07-24T08:14:19.511Z,6.67
2018-07-24T10:12:03.701Z,5.90
2018-07-24T10:14:37.604Z,5.67
2018-07-24T10:17:12.729Z,5.93
2018-07-24T10:19:49.846Z,5.60
2018-07-24T10:22:24.313Z,5.73
2018-07-24T10:25:01.105Z,5.83
2018-07-24T10:27:50.277Z,5.90
2018-07-24T10:30:30.854Z,6.63
2018-07-24T10:33:02.283Z,6.07
2018-07-24T10:35:42.676Z,5.57
2018-07-24T10:38:17.869Z,5.80
2018-07-24T10:41:00.893Z,6.00
2018-07-24T10:43:32.291Z,5.90
2018-07-24T10:46:19.409Z,5.50
2018-07-24T11:10:57.170Z,4.80
2018-07-24T11:13:57.215Z,5.57
2018-07-24T11:16:55.330Z,5.23
2018-07-24T12:38:05.752Z,5.53
2018-07-24T12:40:36.907Z,5.37
2018-07-24T12:43:08.789Z,5.17
2018-07-24T12:45:39.847Z,5.60
2018-07-24T12:48:11.059Z,5.73
2018-07-24T14:22:04.900Z,6.33
2018-07-24T14:24:36.240Z,6.33
2018-07-24T14:27:07.268Z,7.13
2018-07-24T14:29:37.981Z,7.80
2018-07-24T14:32:08.846Z,7.63
2018-07-24T14:34:39.711Z,8.50
2018-07-24T14:37:10.626Z,7.57
2018-07-24T14:39:41.451Z,8.43
2018-07-24T14:42:12.260Z,7.80
2018-07-24T14:44:43.115Z,8.60
2018-07-24T14:47:13.921Z,7.63
2018-07-24T14:49:44.672Z,8.37
2018-07-24T14:52:15.507Z,8.33
2018-07-24T14:54:46.200Z,8.13
2018-07-24T14:57:17.065Z,8.07
2018-07-24T14:59:47.843Z,8.07
2018-07-24T15:02:18.689Z,8.40
2018-07-24T15:04:49.554Z,8.93
2018-07-24T15:07:20.377Z,8.40
2018-07-24T15:09:51.149Z,9.37
2018-07-24T15:12:21.925Z,9.10
2018-07-24T15:14:52.681Z,9.03
2018-07-24T15:17:23.512Z,8.77
2018-07-24T15:19:54.216Z,9.30
2018-07-24T15:22:25.791Z,10.20
2018-07-24T15:25:00.177Z,9.60
2018-07-24T15:27:35.548Z,10.03
2018-07-24T15:30:07.933Z,9.43
2018-07-24T15:32:41.692Z,8.97
2018-07-24T15:35:14.211Z,9.20
2018-07-24T15:37:45.678Z,8.80
2018-07-24T15:40:18.789Z,8.93
2018-07-24T15:42:49.843Z,9.23
2018-07-24T15:45:20.801Z,9.90
2018-07-24T15:47:51.838Z,8.90
2018-07-24T15:50:22.890Z,9.37
2018-07-24T15:52:53.803Z,9.40
2018-07-24T15:55:24.694Z,9.80
2018-07-24T15:57:55.749Z,9.80
2018-07-24T16:00:26.719Z,9.70
2018-07-24T16:02:57.696Z,9.43
2018-07-24T16:05:28.993Z,9.33
2018-07-24T16:08:01.487Z,9.67
2018-07-24T16:10:36.875Z,9.10
2018-07-24T16:13:09.191Z,9.20
2018-07-24T16:15:47.128Z,9.60
2018-07-24T16:18:19.805Z,9.20
2018-07-24T16:20:50.863Z,9.23
2018-07-24T16:23:22.387Z,9.40
2018-07-24T16:25:55.070Z,9.93
2018-07-24T16:28:31.719Z,9.43
2018-07-24T16:31:03.597Z,9.07
2018-07-24T16:33:35.745Z,8.80
2018-07-24T16:36:07.162Z,9.90
2018-07-24T16:38:38.674Z,9.27
2018-07-24T16:41:09.861Z,9.20
2018-07-24T16:43:40.973Z,8.90
2018-07-24T16:46:12.013Z,9.30
2018-07-24T16:52:03.910Z,8.83
2018-07-24T16:54:34.314Z,8.77
2018-07-24T16:57:04.717Z,8.53
2018-07-24T16:59:35.587Z,8.87
2018-07-24T17:02:06.206Z,9.17
2018-07-24T17:04:38.128Z,8.67
2018-07-24T17:07:10.090Z,8.97
2018-07-24T17:09:40.964Z,9.27
2018-07-24T17:12:12.842Z,8.83
2018-07-24T17:14:43.651Z,9.53
2018-07-24T17:17:15.518Z,9.07
2018-07-24T17:19:46.433Z,9.23
2018-07-24T17:22:17.644Z,8.87
2018-07-24T17:24:49.797Z,9.50
2018-07-24T17:27:20.639Z,9.77
2018-07-24T17:29:51.423Z,9.63
2018-07-24T17:32:22.336Z,10.43
2018-07-24T17:34:54.295Z,9.27
2018-07-24T17:37:25.165Z,9.47
2018-07-24T17:39:57.069Z,9.23
2018-07-24T17:42:29.130Z,9.67
2018-07-24T17:45:00.149Z,8.80
2018-07-24T17:47:30.955Z,8.87
2018-07-24T17:50:03.042Z,9.00
2018-07-24T17:52:34.964Z,9.73
2018-07-24T17:55:16.325Z,10.10
2018-07-24T18:07:40.695Z,10.33
2018-07-24T18:10:25.073Z,10.33
2018-07-24T18:12:58.857Z,10.77
2018-07-24T18:15:38.632Z,9.87
2018-07-24T18:18:09.845Z,10.47
2018-07-24T18:20:50.508Z,10.87
2018-07-24T18:23:22.154Z,9.93
2018-07-24T18:25:58.501Z,10.93
2018-07-24T18:28:52.319Z,10.87
2018-07-24T18:31:26.507Z,10.90
2018-07-24T18:46:01.426Z,12.07
2018-07-24T18:48:34.678Z,12.00
2018-07-24T18:51:23.827Z,12.10
2018-07-24T18:53:55.710Z,11.37
2018-07-24T18:56:27.547Z,11.27
2018-07-24T18:58:59.588Z,12.20
2018-07-24T19:01:31.203Z,11.07
2018-07-24T19:04:03.946Z,11.73
2018-07-24T19:06:36.512Z,11.90
2018-07-24T19:09:11.762Z,11.80
2018-07-24T19:11:43.815Z,10.77
2018-07-24T19:14:16.751Z,11.90
2018-07-24T19:16:49.030Z,12.20
2018-07-24T19:19:23.003Z,12.03
2018-07-24T19:21:55.449Z,11.07
2018-07-24T19:24:27.105Z,11.80
2018-07-24T19:26:58.517Z,12.90
2018-07-24T19:29:30.287Z,13.93
2018-07-24T19:32:13.029Z,16.90
2018-07-24T19:35:06.068Z,12.03
2018-07-24T19:37:37.838Z,11.83
2018-07-24T19:45:50.041Z,13.73
2018-07-24T19:48:22.010Z,12.33
2018-07-24T19:50:54.322Z,13.77
2018-07-24T19:53:29.080Z,12.90
2018-07-24T19:56:02.108Z,13.43
2018-07-24T19:58:34.173Z,12.40
2018-07-24T20:01:20.999Z,11.43
2018-07-24T20:03:58.100Z,11.23
2018-07-24T20:06:29.544Z,11.23
2018-07-24T20:09:01.592Z,11.47
2018-07-24T20:11:32.747Z,12.40
2018-07-24T20:14:04.092Z,11.57
2018-07-24T20:16:38.434Z,10.80
2018-07-24T20:19:09.078Z,11.33
2018-07-24T20:21:40.685Z,10.93
2018-07-24T20:24:12.928Z,12.27
2018-07-24T20:26:44.880Z,11.40
2018-07-24T20:29:16.337Z,11.73
2018-07-24T20:31:53.359Z,11.90
2018-07-24T20:34:24.661Z,11.50
2018-07-24T20:37:04.745Z,11.83
2018-07-24T20:39:47.155Z,11.40
2018-07-24T20:42:27.354Z,11.07
2018-07-24T20:45:01.096Z,11.60
2018-07-24T20:47:35.162Z,10.93
2018-07-24T20:50:09.316Z,10.70
2018-07-24T20:52:56.331Z,10.60
2018-07-24T20:55:50.287Z,11.57
2018-07-24T20:58:25.989Z,11.40
2018-07-24T21:00:58.246Z,11.43
2018-07-24T21:03:30.418Z,11.50
2018-07-24T21:06:14.868Z,11.10
2018-07-24T21:08:48.948Z,11.43
2018-07-24T21:12:12.449Z,10.90
2018-07-24T21:14:48.417Z,11.67
2018-07-24T21:17:19.622Z,11.63
2018-07-24T21:19:50.736Z,12.07
2018-07-24T21:22:21.734Z,11.77
2018-07-24T21:24:53.898Z,11.73
2018-07-24T21:27:26.182Z,11.97
2018-07-24T21:30:04.348Z,11.40
2018-07-24T21:32:35.417Z,11.70
2018-07-24T21:35:06.715Z,12.10
2018-07-24T21:37:39.621Z,12.17
2018-07-24T21:40:10.634Z,11.40
2018-07-24T21:42:42.152Z,12.43
2018-07-24T21:45:12.572Z,12.17
2018-07-24T21:47:48.974Z,12.70
2018-07-24T21:50:19.475Z,12.23
2018-07-24T21:52:50.403Z,12.20
2018-07-24T21:55:21.585Z,12.23
2018-07-24T21:57:52.215Z,12.80
2018-07-24T22:00:23.311Z,12.70
2018-07-24T22:02:54.386Z,12.10
2018-07-24T22:05:25.418Z,12.70
2018-07-24T22:07:56.451Z,13.03
2018-07-24T22:10:27.650Z,12.77
2018-07-24T22:12:58.973Z,12.63
2018-07-24T22:15:30.186Z,12.90
2018-07-24T22:18:01.865Z,13.37
2018-07-24T22:20:33.404Z,12.63
2018-07-24T22:23:04.653Z,12.50
2018-07-24T22:25:35.916Z,12.03
2018-07-24T22:28:07.501Z,12.63
2018-07-24T22:30:38.751Z,11.30
2018-07-24T22:33:09.933Z,11.93
2018-07-24T22:35:41.159Z,11.90
2018-07-24T22:38:12.255Z,12.43
2018-07-24T22:40:42.826Z,12.03
2018-07-24T22:43:13.889Z,12.57
2018-07-24T22:45:45.320Z,11.83
2018-07-24T22:48:16.502Z,12.30
2018-07-24T22:50:47.741Z,11.90
2018-07-24T22:53:18.797Z,12.57
2018-07-24T22:55:49.923Z,12.27
2018-07-24T22:58:21.089Z,12.27
2018-07-24T23:00:52.227Z,12.53
2018-07-24T23:03:23.239Z,12.63
2018-07-24T23:05:54.276Z,11.90
2018-07-24T23:08:25.388Z,13.03
2018-07-24T23:10:56.545Z,12.40
2018-07-24T23:13:28.879Z,12.10
2018-07-24T23:15:59.521Z,13.17
2018-07-24T23:18:30.499Z,12.20
2018-07-24T23:21:01.691Z,12.37
2018-07-24T23:23:32.809Z,12.43
2018-07-24T23:26:03.819Z,11.37
2018-07-24T23:28:34.933Z,11.87
2018-07-24T23:31:06.325Z,12.37
2018-07-24T23:33:37.400Z,11.27
2018-07-24T23:36:08.213Z,11.17
2018-07-24T23:38:39.323Z,12.53
2018-07-24T23:41:11.569Z,11.33
2018-07-24T23:44:02.938Z,12.20
2018-07-24T23:46:34.078Z,12.47
2018-07-24T23:49:05.154Z,11.93
2018-07-24T23:51:37.237Z,11.80
2018-07-24T23:54:09.848Z,11.90
2018-07-24T23:56:40.855Z,12.17
2018-07-24T23:59:11.926Z,12.43
